Time;durP1;ratioP1;P1;durP2;ratioP2;P2;SDS_P1;SDS_P2;PMS_P1;PMS_P2;Temp;Humidity;BMP_temperature;BMP_pressure;BME280_temperature;BME280_humidity;BME280_pressure;Samples;Min_cycle;Max_cycle;Signal;HPM_P1;HPM_P2
2022/07/18 00:01:35;;;;;;;1.95;1.08;;;20.70;58.30;;;;;;5055695;28;20029;-92
2022/07/18 00:04:01;;;;;;;1.27;0.77;;;20.60;58.70;;;;;;5038394;28;20095;-92
2022/07/18 00:06:26;;;;;;;1.70;1.10;;;20.60;58.50;;;;;;5055925;28;20454;-92
2022/07/18 00:08:52;;;;;;;2.95;1.00;;;20.60;58.70;;;;;;5056313;28;20522;-91
2022/07/18 00:11:18;;;;;;;1.65;0.98;;;20.60;58.90;;;;;;5056078;28;20111;-91
2022/07/18 00:13:44;;;;;;;3.03;1.00;;;20.50;58.80;;;;;;5038719;28;20116;-91
2022/07/18 00:16:10;;;;;;;2.03;0.73;;;20.50;59.10;;;;;;5037868;28;20025;-91
2022/07/18 00:18:35;;;;;;;3.60;0.95;;;20.30;59.30;;;;;;5038329;28;20056;-91
2022/07/18 00:21:01;;;;;;;0.80;0.70;;;20.30;59.20;;;;;;5038189;28;20036;-93
2022/07/18 00:23:27;;;;;;;2.85;0.90;;;20.30;59.20;;;;;;5046937;28;20079;-91
2022/07/18 00:25:52;;;;;;;3.00;1.10;;;20.30;59.30;;;;;;5058235;28;20077;-91
2022/07/18 00:28:18;;;;;;;3.13;1.23;;;20.30;59.40;;;;;;5058022;28;20032;-92
2022/07/18 00:30:44;;;;;;;1.90;1.02;;;20.30;59.40;;;;;;5076211;28;20064;-91
2022/07/18 00:33:09;;;;;;;2.88;1.00;;;20.30;59.60;;;;;;5075680;28;20032;-91
2022/07/18 00:35:35;;;;;;;3.00;1.05;;;20.20;59.70;;;;;;5075698;28;20092;-91
2022/07/18 00:38:03;;;;;;;3.17;0.88;;;20.20;59.60;;;;;;5075894;28;20025;-92
2022/07/18 00:40:32;;;;;;;2.13;0.98;;;20.10;60.10;;;;;;5057811;28;20067;-91
2022/07/18 00:42:58;;;;;;;2.70;1.00;;;20.00;60.40;;;;;;5057828;28;20024;-91
2022/07/18 00:45:24;;;;;;;2.88;1.15;;;20.00;60.40;;;;;;5074931;28;20029;-91
2022/07/18 00:47:52;;;;;;;3.72;1.02;;;20.00;60.60;;;;;;5057649;28;20035;-91
2022/07/18 00:50:22;;;;;;;3.33;1.05;;;19.90;60.50;;;;;;5057432;28;20032;-91
2022/07/18 00:52:49;;;;;;;1.38;0.90;;;19.90;60.70;;;;;;5057802;28;20021;-91
2022/07/18 00:55:15;;;;;;;2.78;1.08;;;19.90;60.70;;;;;;5057223;28;20056;-91
2022/07/18 00:57:41;;;;;;;4.72;1.30;;;19.90;60.90;;;;;;5057662;28;20053;-91
2022/07/18 01:02:55;;;;;;;4.90;1.00;;;19.80;61.00;;;;;;5075672;28;20087;-92
2022/07/18 01:05:21;;;;;;;3.28;1.10;;;19.70;60.90;;;;;;5057067;28;20487;-91
2022/07/18 01:07:47;;;;;;;3.50;0.90;;;19.80;60.50;;;;;;5057705;28;20111;-89
2022/07/18 01:10:13;;;;;;;1.00;0.80;;;19.80;60.60;;;;;;5057139;28;20029;-90
2022/07/18 01:12:38;;;;;;;1.30;0.93;;;19.80;60.40;;;;;;5074566;28;20029;-90
2022/07/18 01:15:05;;;;;;;3.08;1.15;;;19.80;60.20;;;;;;5074429;28;20025;-92
2022/07/18 01:17:31;;;;;;;2.00;0.80;;;19.90;60.30;;;;;;5044092;28;20111;-90
2022/07/18 01:19:56;;;;;;;2.38;0.93;;;19.90;60.60;;;;;;5036947;28;20032;-92
2022/07/18 01:22:22;;;;;;;1.23;0.95;;;19.80;60.70;;;;;;5054307;28;20179;-91
2022/07/18 01:24:48;;;;;;;3.10;1.25;;;19.80;61.00;;;;;;5036760;28;20029;-91
2022/07/18 01:27:19;;;;;;;1.92;1.10;;;19.70;61.50;;;;;;5054033;28;20043;-91
2022/07/18 01:29:46;;;;;;;1.15;0.82;;;19.60;61.90;;;;;;5037299;28;20040;-91
2022/07/18 01:32:12;;;;;;;1.48;0.85;;;19.50;62.20;;;;;;5036862;28;20035;-91
2022/07/18 01:34:38;;;;;;;2.85;0.93;;;19.50;62.40;;;;;;5037145;28;20413;-91
2022/07/18 01:37:05;;;;;;;2.15;0.85;;;19.50;62.30;;;;;;5054427;28;20021;-91
2022/07/18 01:39:31;;;;;;;2.20;1.20;;;19.30;62.20;;;;;;5054647;28;20098;-90
2022/07/18 01:41:58;;;;;;;2.42;1.35;;;19.30;62.60;;;;;;5037334;28;20037;-89
2022/07/18 01:44:24;;;;;;;3.00;1.27;;;19.10;62.80;;;;;;5054138;28;20090;-91
2022/07/18 01:46:49;;;;;;;2.33;1.17;;;19.10;62.90;;;;;;5037288;28;20025;-90
2022/07/18 01:49:15;;;;;;;2.88;0.93;;;19.00;63.20;;;;;;5036058;28;20064;-90
2022/07/18 01:51:45;;;;;;;2.28;0.90;;;19.00;63.40;;;;;;5037092;28;20031;-91
2022/07/18 01:54:11;;;;;;;1.45;1.00;;;18.90;63.70;;;;;;5054191;28;20021;-91
2022/07/18 01:56:37;;;;;;;2.05;1.17;;;18.90;63.80;;;;;;5035322;28;20033;-90
2022/07/18 01:59:03;;;;;;;2.85;1.15;;;18.90;63.50;;;;;;5036376;28;20149;-92
2022/07/18 02:01:29;;;;;;;1.83;0.90;;;19.00;63.30;;;;;;5036685;28;20029;-89
2022/07/18 02:03:54;;;;;;;3.65;1.20;;;19.00;62.90;;;;;;5036637;28;20477;-89
2022/07/18 02:06:20;;;;;;;3.90;1.20;;;19.00;62.90;;;;;;5036527;28;20033;-90
2022/07/18 02:08:45;;;;;;;1.20;1.00;;;19.00;63.10;;;;;;5054338;28;20425;-90
2022/07/18 02:11:11;;;;;;;3.05;1.13;;;19.00;62.90;;;;;;5036172;28;20025;-90
2022/07/18 02:13:37;;;;;;;5.20;1.13;;;19.00;63.40;;;;;;5036235;28;20071;-90
2022/07/18 02:16:03;;;;;;;3.20;1.10;;;19.00;63.50;;;;;;5053776;28;20021;-92
2022/07/18 02:18:32;;;;;;;2.03;1.10;;;19.00;63.50;;;;;;5050444;28;20025;-89
2022/07/18 02:21:01;;;;;;;1.75;1.30;;;18.90;63.90;;;;;;5056581;28;20060;-89
2022/07/18 02:23:26;;;;;;;2.80;1.02;;;18.90;64.10;;;;;;5056264;28;20025;-89
2022/07/18 02:25:52;;;;;;;4.70;1.38;;;18.80;64.20;;;;;;5078540;28;20028;-89
2022/07/18 02:28:18;;;;;;;2.72;1.08;;;18.80;64.30;;;;;;5060081;28;20464;-89
2022/07/18 02:30:44;;;;;;;3.60;1.00;;;18.80;64.50;;;;;;5060345;28;20071;-89
2022/07/18 02:33:10;;;;;;;3.78;1.00;;;18.70;64.80;;;;;;5059906;28;20036;-90
2022/07/18 02:35:35;;;;;;;2.13;1.20;;;18.60;65.10;;;;;;5078581;28;20047;-90
2022/07/18 02:38:01;;;;;;;2.40;1.08;;;18.60;65.30;;;;;;5077388;28;20028;-90
2022/07/18 02:40:27;;;;;;;4.28;1.15;;;18.50;65.80;;;;;;5056262;28;20366;-89
2022/07/18 02:42:52;;;;;;;2.63;0.98;;;18.50;65.80;;;;;;5060520;28;20033;-89
2022/07/18 02:45:18;;;;;;;1.25;1.00;;;18.50;65.90;;;;;;5056452;28;20037;-89
2022/07/18 02:47:44;;;;;;;2.60;1.10;;;18.50;65.80;;;;;;5059775;28;20119;-89
2022/07/18 02:50:11;;;;;;;2.38;1.20;;;18.50;65.70;;;;;;5077547;28;20130;-89
2022/07/18 02:52:38;;;;;;;5.03;1.25;;;18.50;65.90;;;;;;5077359;28;20017;-90
2022/07/18 02:55:04;;;;;;;1.70;1.02;;;18.50;66.00;;;;;;5077711;28;20025;-92
2022/07/18 02:57:30;;;;;;;2.90;0.98;;;18.50;66.10;;;;;;5059726;28;20058;-90
2022/07/18 02:59:56;;;;;;;2.80;1.02;;;18.50;66.30;;;;;;5060043;28;20036;-90
2022/07/18 03:02:21;;;;;;;3.55;1.50;;;18.40;66.70;;;;;;5059347;28;20028;-90
2022/07/18 03:04:47;;;;;;;3.63;1.20;;;18.40;66.70;;;;;;5077042;28;20028;-90
2022/07/18 03:07:13;;;;;;;2.60;1.33;;;18.40;66.80;;;;;;5055849;28;20032;-89
2022/07/18 03:09:38;;;;;;;2.58;1.20;;;18.40;66.80;;;;;;5059330;28;20032;-90
2022/07/18 03:12:04;;;;;;;2.63;1.13;;;18.30;67.10;;;;;;5055248;28;20029;-93
2022/07/18 03:14:30;;;;;;;2.75;1.20;;;18.30;67.50;;;;;;5074857;28;20025;-90
2022/07/18 03:16:55;;;;;;;4.32;1.27;;;18.20;67.50;;;;;;5059328;28;20052;-90
2022/07/18 03:19:21;;;;;;;3.80;1.08;;;18.20;67.70;;;;;;5055821;28;20619;-90
2022/07/18 03:21:47;;;;;;;2.70;1.00;;;18.20;67.80;;;;;;5059366;28;20032;-89
2022/07/18 03:24:13;;;;;;;2.97;1.10;;;18.20;67.70;;;;;;5059034;28;20078;-90
2022/07/18 03:26:40;;;;;;;2.85;1.15;;;18.20;67.60;;;;;;5044047;28;20445;-90
2022/07/18 03:29:05;;;;;;;1.50;1.10;;;18.20;67.60;;;;;;5059077;28;20028;-90
2022/07/18 03:31:31;;;;;;;2.45;1.30;;;18.20;67.40;;;;;;5059501;28;20032;-90
2022/07/18 03:33:57;;;;;;;2.42;1.10;;;18.20;67.60;;;;;;5059331;28;20029;-90
2022/07/18 03:36:22;;;;;;;2.35;0.90;;;18.10;67.70;;;;;;5058214;28;20078;-90
2022/07/18 03:38:48;;;;;;;1.73;1.15;;;18.10;67.70;;;;;;5076339;28;20020;-89
2022/07/18 03:41:14;;;;;;;1.63;1.35;;;18.00;67.70;;;;;;5076267;28;20509;-89
2022/07/18 03:43:40;;;;;;;2.67;1.05;;;17.90;67.90;;;;;;5057351;28;20375;-89
2022/07/18 03:46:06;;;;;;;2.53;1.05;;;18.00;68.10;;;;;;5058774;28;20021;-89
2022/07/18 03:48:32;;;;;;;3.13;1.15;;;17.90;68.30;;;;;;5059095;28;20384;-89
2022/07/18 03:50:59;;;;;;;1.77;1.00;;;17.80;68.20;;;;;;5059314;28;20115;-89
2022/07/18 03:53:25;;;;;;;2.28;1.20;;;17.80;68.40;;;;;;5076121;28;20029;-89
2022/07/18 03:55:51;;;;;;;3.72;1.30;;;17.80;68.70;;;;;;5071425;28;20032;-89
2022/07/18 03:58:16;;;;;;;2.00;0.88;;;17.80;68.60;;;;;;5058096;28;20026;-89
2022/07/18 04:00:42;;;;;;;3.03;1.00;;;17.80;68.50;;;;;;5075833;28;20029;-89
2022/07/18 04:03:07;;;;;;;2.17;1.15;;;17.80;68.40;;;;;;5057815;28;20052;-89
2022/07/18 04:05:33;;;;;;;4.15;1.00;;;17.80;68.20;;;;;;5076084;28;20021;-88
2022/07/18 04:07:59;;;;;;;5.75;1.10;;;17.90;68.40;;;;;;5058501;28;20025;-90
2022/07/18 04:10:25;;;;;;;4.13;1.50;;;17.80;68.50;;;;;;5076151;28;20421;-89
2022/07/18 04:12:52;;;;;;;3.88;1.27;;;17.80;68.80;;;;;;5076329;28;20055;-89
2022/07/18 04:15:20;;;;;;;3.38;1.23;;;17.80;68.40;;;;;;5075646;28;20027;-89
2022/07/18 04:17:45;;;;;;;3.47;1.30;;;17.90;68.50;;;;;;5043126;28;20076;-89
2022/07/18 04:20:13;;;;;;;2.28;1.08;;;18.00;68.10;;;;;;5055817;28;20098;-88
2022/07/18 04:22:59;;;;;;;1.30;1.05;;;18.00;68.30;;;;;;5055954;28;20055;-89
2022/07/18 04:25:27;;;;;;;1.45;1.20;;;18.10;68.50;;;;;;5037980;28;20036;-90
2022/07/18 04:27:53;;;;;;;6.32;1.40;;;18.00;68.10;;;;;;5038375;28;20529;-89
2022/07/18 04:30:21;;;;;;;2.17;1.38;;;18.10;68.10;;;;;;5037851;28;20039;-89
2022/07/18 04:32:47;;;;;;;1.80;1.05;;;18.10;68.10;;;;;;5038497;28;20024;-89
2022/07/18 04:35:13;;;;;;;2.08;0.90;;;18.10;68.00;;;;;;5055233;28;20027;-89
2022/07/18 04:37:39;;;;;;;5.97;1.27;;;18.10;68.10;;;;;;5038527;28;20055;-89
2022/07/18 04:40:06;;;;;;;3.47;1.60;;;18.10;67.90;;;;;;5037739;28;20465;-91
2022/07/18 04:42:31;;;;;;;3.78;1.20;;;18.10;68.10;;;;;;5055039;28;20029;-89
2022/07/18 04:44:58;;;;;;;4.25;1.30;;;18.10;68.40;;;;;;5055666;28;20115;-89
2022/07/18 04:47:24;;;;;;;2.88;1.30;;;18.10;68.50;;;;;;5055166;28;20047;-89
2022/07/18 04:49:50;;;;;;;2.42;1.13;;;18.10;68.50;;;;;;5037935;28;20041;-88
2022/07/18 04:52:16;;;;;;;2.83;1.50;;;18.20;68.60;;;;;;5037448;28;20124;-89
2022/07/18 04:54:41;;;;;;;3.45;1.40;;;18.10;68.40;;;;;;5037801;28;20454;-89
2022/07/18 04:57:08;;;;;;;5.38;1.27;;;18.20;68.40;;;;;;5037137;28;20052;-89
2022/07/18 04:59:34;;;;;;;5.10;1.25;;;18.20;68.80;;;;;;5055410;28;20025;-89
2022/07/18 05:01:59;;;;;;;2.47;0.95;;;18.30;69.00;;;;;;5055137;28;20033;-89
2022/07/18 05:04:25;;;;;;;2.67;1.10;;;18.30;68.80;;;;;;5037072;28;20079;-89
2022/07/18 05:06:51;;;;;;;3.38;1.20;;;18.30;68.90;;;;;;5037513;28;20466;-89
2022/07/18 05:09:16;;;;;;;2.55;1.40;;;18.40;69.30;;;;;;5037113;28;20031;-89
2022/07/18 05:11:42;;;;;;;4.75;1.30;;;18.40;69.00;;;;;;5037852;28;20462;-88
2022/07/18 05:14:07;;;;;;;4.25;1.23;;;18.40;68.20;;;;;;5036595;28;20025;-88
2022/07/18 05:16:33;;;;;;;4.97;1.15;;;18.40;67.80;;;;;;5056068;28;20474;-89
2022/07/18 05:18:59;;;;;;;4.57;1.40;;;18.50;67.80;;;;;;5057445;28;20115;-89
2022/07/18 05:21:24;;;;;;;2.35;1.33;;;18.50;68.00;;;;;;5057446;28;20389;-89
2022/07/18 05:23:50;;;;;;;3.22;1.00;;;18.50;68.10;;;;;;5057429;28;20036;-89
2022/07/18 05:26:16;;;;;;;2.88;1.23;;;18.50;68.20;;;;;;5056688;28;20036;-89
2022/07/18 05:28:41;;;;;;;3.92;1.15;;;18.60;68.40;;;;;;5057198;28;20029;-90
2022/07/18 05:31:07;;;;;;;3.22;1.00;;;18.70;68.50;;;;;;5056961;28;20029;-89
2022/07/18 05:33:33;;;;;;;2.67;1.50;;;18.70;67.90;;;;;;5057078;28;20051;-89
2022/07/18 05:35:58;;;;;;;4.32;1.10;;;18.70;67.30;;;;;;5074590;28;20104;-90
2022/07/18 05:38:24;;;;;;;2.10;0.95;;;18.70;67.60;;;;;;5056427;28;20032;-90
2022/07/18 05:40:49;;;;;;;4.18;1.30;;;18.70;67.80;;;;;;5056911;28;20086;-89
2022/07/18 05:43:15;;;;;;;3.50;1.23;;;18.80;67.40;;;;;;5074143;28;20028;-89
2022/07/18 05:45:41;;;;;;;2.45;1.25;;;18.80;67.20;;;;;;5057021;28;20144;-89
2022/07/18 05:48:07;;;;;;;5.10;1.13;;;18.90;67.80;;;;;;5056026;28;20024;-89
2022/07/18 05:50:33;;;;;;;4.80;1.30;;;18.90;67.10;;;;;;5074196;28;20036;-89
2022/07/18 05:52:59;;;;;;;3.05;1.35;;;19.00;66.10;;;;;;5056795;28;20449;-90
2022/07/18 05:55:24;;;;;;;4.75;1.13;;;19.00;65.70;;;;;;5073709;28;20186;-90
2022/07/18 05:57:50;;;;;;;4.43;1.15;;;19.10;65.90;;;;;;5056202;28;20029;-88
2022/07/18 06:00:16;;;;;;;2.28;1.15;;;19.10;65.80;;;;;;5073521;28;20032;-89
2022/07/18 06:02:42;;;;;;;2.55;0.90;;;19.20;65.70;;;;;;5056331;28;20025;-89
2022/07/18 06:05:09;;;;;;;3.50;0.80;;;19.20;65.20;;;;;;5073687;28;20027;-90
2022/07/18 06:07:35;;;;;;;3.17;1.02;;;19.30;65.20;;;;;;5056312;28;20092;-90
2022/07/18 06:10:00;;;;;;;2.55;0.90;;;19.40;65.00;;;;;;5056870;28;20083;-91
2022/07/18 06:12:30;;;;;;;4.55;1.55;;;19.40;64.80;;;;;;5056121;28;20025;-90
2022/07/18 06:14:56;;;;;;;2.50;0.73;;;19.50;64.70;;;;;;5074341;28;20074;-89
2022/07/18 06:17:22;;;;;;;5.25;1.50;;;19.50;64.30;;;;;;5043676;28;20072;-90
2022/07/18 06:19:48;;;;;;;6.13;1.08;;;19.50;63.90;;;;;;5053821;28;20028;-89
2022/07/18 06:22:13;;;;;;;1.88;0.90;;;19.60;63.80;;;;;;5035841;28;20082;-90
2022/07/18 06:24:39;;;;;;;2.85;1.27;;;19.70;63.80;;;;;;5036400;28;20108;-89
2022/07/18 06:27:05;;;;;;;3.60;1.05;;;19.70;63.30;;;;;;5053462;28;20485;-92
2022/07/18 06:29:30;;;;;;;3.70;1.42;;;19.80;63.10;;;;;;5036328;28;20120;-89
2022/07/18 06:31:56;;;;;;;6.90;0.90;;;19.90;62.60;;;;;;5036460;28;20179;-90
2022/07/18 06:34:22;;;;;;;4.20;1.08;;;19.90;62.40;;;;;;5035874;28;20530;-89
2022/07/18 06:36:47;;;;;;;4.22;0.90;;;20.00;62.40;;;;;;5035985;28;20029;-89
2022/07/18 06:39:16;;;;;;;2.63;1.00;;;20.00;62.10;;;;;;5035795;28;20056;-89
2022/07/18 06:41:42;;;;;;;2.22;1.00;;;20.10;61.90;;;;;;5036487;28;20060;-89
2022/07/18 06:44:07;;;;;;;5.93;1.25;;;20.10;62.00;;;;;;5053354;28;20021;-90
2022/07/18 06:46:33;;;;;;;2.53;0.98;;;20.20;61.80;;;;;;5036330;28;20059;-88
2022/07/18 06:48:59;;;;;;;1.23;0.70;;;20.20;61.60;;;;;;5053779;28;20029;-88
2022/07/18 06:51:24;;;;;;;1.65;0.82;;;20.20;61.10;;;;;;5035490;28;20027;-89
2022/07/18 06:53:51;;;;;;;4.15;1.00;;;20.30;61.30;;;;;;5053510;28;20109;-89
2022/07/18 06:56:17;;;;;;;5.05;1.30;;;20.40;61.80;;;;;;5065989;28;20031;-89
2022/07/18 06:58:48;;;;;;;1.30;0.90;;;20.40;61.50;;;;;;5036667;28;20025;-88
2022/07/18 07:01:17;;;;;;;1.42;0.70;;;20.50;61.00;;;;;;5035130;28;20044;-89
2022/07/18 07:03:44;;;;;;;8.30;1.15;;;20.60;60.30;;;;;;5053430;28;20072;-90
2022/07/18 07:06:10;;;;;;;2.72;1.13;;;20.70;59.90;;;;;;5035506;28;20064;-89
2022/07/18 07:08:36;;;;;;;5.05;1.10;;;20.70;59.50;;;;;;5053144;28;20025;-91
2022/07/18 07:11:01;;;;;;;2.53;0.80;;;20.70;59.00;;;;;;5037419;28;20032;-91
2022/07/18 07:13:28;;;;;;;1.05;0.60;;;20.90;58.50;;;;;;5057122;28;20021;-92
2022/07/18 07:15:53;;;;;;;1.85;0.98;;;20.90;57.80;;;;;;5039693;28;20028;-91
2022/07/18 07:18:19;;;;;;;3.65;0.90;;;20.90;58.00;;;;;;5051055;28;20529;-92
2022/07/18 07:20:45;;;;;;;1.98;0.70;;;21.00;57.40;;;;;;5056191;28;20033;-92
2022/07/18 07:23:11;;;;;;;3.92;0.98;;;21.00;57.30;;;;;;5057443;28;20051;-92
2022/07/18 07:25:37;;;;;;;1.92;1.00;;;21.10;57.40;;;;;;5057339;28;20401;-93
2022/07/18 07:28:04;;;;;;;2.75;1.02;;;21.20;57.60;;;;;;5056359;28;20037;-90
2022/07/18 07:30:31;;;;;;;2.60;1.10;;;21.20;57.40;;;;;;5057845;28;20098;-91
2022/07/18 07:32:56;;;;;;;3.00;1.10;;;21.20;57.40;;;;;;5060913;28;20078;-93
2022/07/18 07:35:22;;;;;;;2.28;0.90;;;21.30;57.30;;;;;;5061188;28;20025;-92
2022/07/18 07:37:58;;;;;;;0.75;0.60;;;21.40;56.80;;;;;;5055313;28;20025;-92
2022/07/18 07:40:26;;;;;;;0.90;0.70;;;21.30;56.10;;;;;;5052251;28;20032;-92
2022/07/18 07:42:52;;;;;;;1.77;0.90;;;21.40;56.00;;;;;;5052905;28;20041;-91
2022/07/18 07:45:19;;;;;;;2.67;0.88;;;21.30;56.00;;;;;;5051163;28;20025;-93
2022/07/18 07:47:45;;;;;;;4.13;0.75;;;21.50;56.00;;;;;;5054584;28;20474;-92
2022/07/18 07:50:11;;;;;;;2.72;1.00;;;21.50;55.90;;;;;;5056140;28;20067;-89
2022/07/18 07:52:38;;;;;;;1.50;0.80;;;21.60;56.00;;;;;;5055642;28;20112;-93
2022/07/18 07:55:05;;;;;;;2.72;0.88;;;21.70;55.80;;;;;;5053463;28;20025;-91
2022/07/18 07:57:30;;;;;;;1.63;0.80;;;21.70;55.60;;;;;;5056009;28;20056;-93
2022/07/18 07:59:56;;;;;;;1.48;0.88;;;21.80;55.60;;;;;;5055469;28;20482;-92
2022/07/18 08:02:22;;;;;;;2.55;0.98;;;21.80;55.40;;;;;;5056220;28;20119;-92
2022/07/18 08:04:47;;;;;;;2.30;0.70;;;21.80;55.30;;;;;;5057785;28;20029;-91
2022/07/18 08:07:13;;;;;;;1.50;0.77;;;21.80;55.00;;;;;;5055115;28;20114;-92
2022/07/18 08:09:39;;;;;;;2.55;1.08;;;22.00;54.70;;;;;;5056023;28;20393;-92
2022/07/18 08:12:05;;;;;;;2.03;0.90;;;22.00;54.60;;;;;;5072171;28;20108;-93
2022/07/18 08:14:33;;;;;;;3.72;0.70;;;22.10;54.70;;;;;;5060038;28;20031;-92
2022/07/18 08:16:59;;;;;;;4.10;0.90;;;22.20;54.60;;;;;;5057287;28;20060;-92
2022/07/18 08:19:25;;;;;;;1.90;0.80;;;22.30;54.60;;;;;;5057930;28;20090;-93
2022/07/18 08:21:50;;;;;;;1.88;0.98;;;22.30;54.60;;;;;;5055622;28;20037;-93
2022/07/18 08:24:16;;;;;;;3.90;0.82;;;22.30;54.70;;;;;;5056525;28;20021;-91
2022/07/18 08:26:44;;;;;;;1.85;0.95;;;22.40;54.50;;;;;;5068982;28;20090;-89
2022/07/18 08:29:09;;;;;;;3.72;0.70;;;22.40;54.40;;;;;;5054701;28;20456;-92
2022/07/18 08:31:36;;;;;;;1.20;0.77;;;22.50;54.00;;;;;;5056098;28;20049;-93
2022/07/18 08:34:02;;;;;;;2.50;0.77;;;22.50;54.10;;;;;;5055243;28;20051;-93
2022/07/18 08:36:28;;;;;;;3.72;0.60;;;22.60;54.10;;;;;;5055752;28;20476;-93
2022/07/18 08:38:53;;;;;;;1.23;0.70;;;22.70;53.90;;;;;;5056348;28;20084;-94
2022/07/18 08:41:23;;;;;;;2.40;0.73;;;22.80;53.40;;;;;;5054911;28;20025;-89
2022/07/18 08:43:49;;;;;;;1.52;0.85;;;22.70;53.20;;;;;;5053144;28;20138;-94
2022/07/18 08:46:21;;;;;;;1.13;0.70;;;22.80;53.40;;;;;;5051698;28;20111;-92
2022/07/18 08:48:47;;;;;;;1.58;0.60;;;22.80;53.50;;;;;;5052840;28;20044;-93
2022/07/18 08:51:14;;;;;;;3.55;0.73;;;22.90;53.40;;;;;;5054325;28;20032;-92
2022/07/18 08:53:40;;;;;;;1.52;0.70;;;23.00;53.10;;;;;;5055180;28;20032;-93
2022/07/18 08:56:06;;;;;;;3.13;0.90;;;23.10;52.70;;;;;;5066161;28;20029;-94
2022/07/18 08:58:32;;;;;;;5.05;0.90;;;23.10;52.80;;;;;;5052030;28;20033;-92
2022/07/18 09:00:58;;;;;;;2.45;0.80;;;23.20;52.80;;;;;;5055182;28;20055;-93
2022/07/18 09:03:24;;;;;;;1.67;0.90;;;23.20;53.20;;;;;;5055091;28;20033;-93
2022/07/18 09:06:13;;;;;;;1.95;0.70;;;23.30;52.80;;;;;;5055620;28;20060;-93
2022/07/18 09:08:56;;;;;;;3.38;0.80;;;23.40;52.60;;;;;;5055806;28;20047;-94
2022/07/18 09:11:22;;;;;;;3.78;0.80;;;23.30;52.60;;;;;;5053573;28;20434;-93
2022/07/18 09:13:47;;;;;;;2.80;0.90;;;23.50;52.60;;;;;;5049182;28;20029;-94
2022/07/18 09:16:14;;;;;;;3.10;0.85;;;23.40;52.30;;;;;;5040519;28;20028;-93
2022/07/18 09:18:42;;;;;;;1.00;0.70;;;23.50;52.20;;;;;;5057345;28;20434;-93
2022/07/18 09:21:10;;;;;;;1.88;0.77;;;23.50;52.20;;;;;;5057045;28;20086;-92
2022/07/18 09:23:44;;;;;;;3.67;0.98;;;23.50;52.40;;;;;;5074326;28;20025;-93
2022/07/18 09:26:11;;;;;;;1.30;0.60;;;23.50;52.20;;;;;;5073242;28;20199;-93
2022/07/18 09:28:50;;;;;;;4.68;1.00;;;23.60;52.00;;;;;;5064428;28;20051;-94
2022/07/18 09:31:20;;;;;;;2.53;1.00;;;23.80;52.10;;;;;;5076315;28;20027;-93
2022/07/18 09:33:56;;;;;;;1.42;0.90;;;23.90;51.40;;;;;;5057428;28;20029;-92
2022/07/18 09:36:22;;;;;;;3.13;0.80;;;23.90;51.30;;;;;;5056110;28;20120;-93
2022/07/18 09:38:48;;;;;;;2.33;0.95;;;24.10;51.30;;;;;;5073412;28;20047;-94
2022/07/18 09:41:14;;;;;;;2.42;0.85;;;24.10;50.90;;;;;;5058771;28;20039;-94
2022/07/18 09:43:40;;;;;;;1.42;1.10;;;24.10;50.40;;;;;;5056439;28;20024;-94
2022/07/18 09:46:07;;;;;;;2.45;0.90;;;24.20;50.50;;;;;;5056242;28;20021;-94
2022/07/18 09:48:33;;;;;;;2.60;0.90;;;24.30;50.60;;;;;;5056322;28;20111;-94
2022/07/18 09:51:03;;;;;;;2.00;0.80;;;24.30;50.30;;;;;;5074292;28;20032;-93
2022/07/18 09:53:34;;;;;;;4.68;0.80;;;24.40;50.00;;;;;;5056257;28;20036;-93
2022/07/18 09:56:11;;;;;;;4.43;1.02;;;24.50;49.70;;;;;;5055888;28;20393;-91
2022/07/18 09:58:49;;;;;;;2.00;1.10;;;24.70;50.00;;;;;;5056059;28;20020;-93
2022/07/18 10:01:15;;;;;;;1.10;0.80;;;24.70;49.90;;;;;;5055272;28;20115;-93
2022/07/18 10:03:40;;;;;;;2.45;0.70;;;24.70;49.80;;;;;;5056235;28;20115;-94
2022/07/18 10:06:06;;;;;;;3.70;0.90;;;24.80;49.90;;;;;;5055472;28;20039;-95
2022/07/18 10:08:34;;;;;;;2.47;0.85;;;24.80;49.90;;;;;;5055682;28;20414;-92
2022/07/18 10:11:01;;;;;;;2.00;0.80;;;24.90;51.00;;;;;;5073743;28;20052;-92
2022/07/18 10:13:28;;;;;;;1.85;0.73;;;25.00;50.00;;;;;;5073469;28;20024;-92
2022/07/18 10:15:54;;;;;;;3.47;0.98;;;25.10;49.30;;;;;;5048812;28;20032;-93
2022/07/18 10:18:23;;;;;;;1.73;0.70;;;25.30;48.70;;;;;;5068176;28;20532;-93
2022/07/18 10:21:01;;;;;;;1.48;0.90;;;25.40;48.90;;;;;;5039358;28;20033;-94
2022/07/18 10:23:29;;;;;;;2.25;0.95;;;25.20;48.80;;;;;;5055231;28;20038;-93
2022/07/18 10:26:24;;;;;;;2.75;0.75;;;25.10;48.70;;;;;;5070884;28;20036;-93
2022/07/18 10:28:55;;;;;;;1.90;0.80;;;25.30;50.10;;;;;;5071363;28;20369;-93
2022/07/18 10:31:32;;;;;;;2.70;0.70;;;25.30;50.40;;;;;;5054637;28;20033;-93
2022/07/18 10:34:07;;;;;;;3.13;0.82;;;25.50;50.20;;;;;;5054731;28;20020;-94
2022/07/18 10:36:38;;;;;;;2.47;1.05;;;25.50;51.10;;;;;;5053478;28;20025;-93
2022/07/18 10:39:09;;;;;;;1.65;0.75;;;25.70;50.40;;;;;;5055344;28;20107;-93
2022/07/18 10:41:41;;;;;;;1.58;0.90;;;25.70;50.40;;;;;;5049338;28;20059;-92
2022/07/18 10:44:25;;;;;;;2.47;0.85;;;25.80;49.70;;;;;;5053404;28;20025;-94
2022/07/18 10:47:12;;;;;;;6.07;0.80;;;26.00;49.60;;;;;;5059229;28;20032;-92
2022/07/18 10:49:49;;;;;;;4.57;0.88;;;26.00;49.30;;;;;;5077120;28;20024;-93
2022/07/18 10:52:30;;;;;;;1.70;0.85;;;26.10;49.70;;;;;;5052944;28;20470;-93
2022/07/18 10:55:02;;;;;;;1.33;1.10;;;26.20;48.30;;;;;;5051366;28;20075;-92
2022/07/18 10:57:31;;;;;;;3.00;0.90;;;26.30;47.90;;;;;;5051373;28;20068;-93
2022/07/18 11:00:16;;;;;;;2.38;0.98;;;26.40;48.00;;;;;;5055767;28;20036;-93
2022/07/18 11:02:44;;;;;;;2.60;0.80;;;26.50;47.90;;;;;;5059982;28;20036;-92
2022/07/18 11:05:26;;;;;;;1.40;0.65;;;26.60;47.60;;;;;;5072561;28;20390;-93
2022/07/18 11:08:07;;;;;;;2.33;0.60;;;26.60;48.20;;;;;;5076721;28;20021;-93
2022/07/18 11:10:46;;;;;;;1.33;0.88;;;26.70;47.90;;;;;;5076928;28;20036;-93
2022/07/18 11:13:24;;;;;;;1.27;0.70;;;26.70;47.00;;;;;;5057882;28;20025;-92
2022/07/18 11:16:09;;;;;;;5.20;1.75;;;26.90;47.40;;;;;;5068856;28;20025;-90
2022/07/18 11:18:44;;;;;;;3.63;1.17;;;27.00;47.20;;;;;;5058832;28;20079;-94
2022/07/18 11:21:17;;;;;;;2.97;1.30;;;26.90;46.70;;;;;;5058581;28;20078;-94
2022/07/18 11:23:46;;;;;;;4.10;1.10;;;27.10;46.40;;;;;;5059022;28;20051;-95
2022/07/18 11:26:22;;;;;;;1.73;0.80;;;27.20;46.00;;;;;;5058148;28;20039;-94
2022/07/18 11:28:59;;;;;;;2.03;0.80;;;27.20;46.10;;;;;;5052955;28;20123;-95
2022/07/18 11:31:26;;;;;;;1.38;0.80;;;27.20;45.90;;;;;;5058103;28;20128;-95
2022/07/18 11:33:52;;;;;;;1.98;1.20;;;27.30;46.00;;;;;;5058361;28;20028;-94
2022/07/18 11:36:20;;;;;;;4.22;0.95;;;27.30;46.20;;;;;;5075997;28;20146;-90
2022/07/18 11:38:57;;;;;;;0.98;0.90;;;27.50;45.20;;;;;;5058201;28;20021;-93
2022/07/18 11:41:23;;;;;;;1.08;0.90;;;27.60;45.00;;;;;;5075032;28;20087;-94
2022/07/18 11:43:52;;;;;;;3.35;0.80;;;27.70;45.10;;;;;;5057125;28;20170;-93
2022/07/18 11:46:23;;;;;;;1.20;0.85;;;27.80;45.10;;;;;;5048941;28;20017;-93
2022/07/18 11:49:02;;;;;;;3.67;0.77;;;28.00;44.50;;;;;;5053141;28;20029;-92
2022/07/18 11:51:39;;;;;;;3.15;0.80;;;28.10;44.30;;;;;;5058128;28;20041;-91
2022/07/18 11:54:06;;;;;;;3.85;0.98;;;28.30;44.20;;;;;;5075601;28;20075;-91
2022/07/18 11:56:31;;;;;;;2.05;0.77;;;28.30;44.20;;;;;;5054321;28;20068;-91
2022/07/18 11:58:57;;;;;;;1.35;0.80;;;28.30;44.20;;;;;;5074567;28;20055;-91
2022/07/18 12:01:32;;;;;;;3.30;0.93;;;28.40;45.10;;;;;;5057534;28;20051;-91
2022/07/18 12:03:58;;;;;;;2.55;0.80;;;28.60;44.10;;;;;;5052604;28;20036;-92
2022/07/18 12:06:24;;;;;;;1.08;0.75;;;28.70;44.30;;;;;;5056612;28;20027;-91
2022/07/18 12:08:52;;;;;;;3.45;1.10;;;28.70;44.00;;;;;;5075614;28;20092;-90
2022/07/18 12:11:28;;;;;;;0.93;0.75;;;28.70;43.50;;;;;;5074650;28;20032;-92
2022/07/18 12:14:17;;;;;;;2.63;0.90;;;28.80;42.80;;;;;;5055199;28;20024;-91
2022/07/18 12:16:48;;;;;;;4.05;0.75;;;28.90;42.70;;;;;;5047314;28;20148;-90
2022/07/18 12:19:15;;;;;;;;;;;28.90;43.20;;;;;;5055595;28;20031;-90
2022/07/18 12:22:09;;;;;;;1.98;0.57;;;28.90;43.00;;;;;;5073761;28;19912;-90
2022/07/18 12:24:45;;;;;;;3.10;0.82;;;29.00;42.70;;;;;;5061626;28;20032;-91
2022/07/18 12:27:29;;;;;;;1.30;0.80;;;29.00;42.70;;;;;;5056777;28;20482;-89
2022/07/18 12:30:08;;;;;;;2.15;0.95;;;29.10;41.60;;;;;;5067142;28;20029;-91
2022/07/18 12:32:56;;;;;;;1.45;0.90;;;29.20;41.90;;;;;;5072824;28;20025;-90
2022/07/18 12:35:35;;;;;;;2.20;0.70;;;29.40;42.00;;;;;;5064601;28;20501;-90
2022/07/18 12:38:09;;;;;;;1.88;0.88;;;29.50;41.40;;;;;;5075366;28;20032;-91
2022/07/18 12:40:41;;;;;;;0.90;0.57;;;29.60;41.30;;;;;;5057308;28;20024;-91
2022/07/18 12:43:09;;;;;;;1.85;0.80;;;29.60;41.80;;;;;;5056444;28;20359;-89
2022/07/18 12:45:36;;;;;;;3.95;0.80;;;29.60;42.10;;;;;;5072234;28;20074;-91
2022/07/18 12:48:03;;;;;;;1.27;0.70;;;29.70;41.40;;;;;;5056646;28;20035;-90
2022/07/18 12:50:29;;;;;;;1.05;0.68;;;29.80;41.00;;;;;;5056728;28;20032;-90
2022/07/18 12:52:56;;;;;;;1.15;0.40;;;29.80;41.10;;;;;;5074747;28;20028;-92
2022/07/18 12:55:22;;;;;;;0.90;0.80;;;29.90;41.10;;;;;;5071936;28;20481;-90